sensor_id;sensor_type;location;lat;lon;timestamp;temperature;humidity
76878;DHT22;65843;50.692;12.844;2023-04-19T00:00:04;21.70;58.00
76878;DHT22;65843;50.692;12.844;2023-04-19T00:01:07;21.70;58.10
76878;DHT22;65843;50.692;12.844;2023-04-19T00:02:08;21.70;58.00
76878;DHT22;65843;50.692;12.844;2023-04-19T00:03:09;21.70;58.10
76878;DHT22;65843;50.692;12.844;2023-04-19T00:04:10;21.70;58.00
76878;DHT22;65843;50.692;12.844;2023-04-19T00:05:12;21.70;58.00
76878;DHT22;65843;50.692;12.844;2023-04-19T00:06:13;21.70;58.10
76878;DHT22;65843;50.692;12.844;2023-04-19T00:07:14;21.70;58.10
76878;DHT22;65843;50.692;12.844;2023-04-19T00:08:16;21.70;58.10
76878;DHT22;65843;50.692;12.844;2023-04-19T00:09:17;21.70;58.20
76878;DHT22;65843;50.692;12.844;2023-04-19T00:10:18;21.70;58.10
76878;DHT22;65843;50.692;12.844;2023-04-19T00:11:19;21.70;58.00
76878;DHT22;65843;50.692;12.844;2023-04-19T00:12:20;21.70;58.10
76878;DHT22;65843;50.692;12.844;2023-04-19T00:13:21;21.70;58.10
76878;DHT22;65843;50.692;12.844;2023-04-19T00:14:22;21.70;58.10
76878;DHT22;65843;50.692;12.844;2023-04-19T00:15:23;21.70;58.00
76878;DHT22;65843;50.692;12.844;2023-04-19T00:16:24;21.70;58.00
76878;DHT22;65843;50.692;12.844;2023-04-19T00:17:25;21.70;58.00
76878;DHT22;65843;50.692;12.844;2023-04-19T00:18:26;21.70;58.10
76878;DHT22;65843;50.692;12.844;2023-04-19T00:19:27;21.70;58.00
76878;DHT22;65843;50.692;12.844;2023-04-19T00:20:28;21.70;58.00
76878;DHT22;65843;50.692;12.844;2023-04-19T00:21:29;21.70;58.00
76878;DHT22;65843;50.692;12.844;2023-04-19T00:22:31;21.70;58.00
76878;DHT22;65843;50.692;12.844;2023-04-19T00:23:32;21.70;58.00
76878;DHT22;65843;50.692;12.844;2023-04-19T00:24:33;21.70;58.00
76878;DHT22;65843;50.692;12.844;2023-04-19T00:25:33;21.70;58.00
76878;DHT22;65843;50.692;12.844;2023-04-19T00:26:34;21.70;58.00
76878;DHT22;65843;50.692;12.844;2023-04-19T00:27:35;21.70;58.00
76878;DHT22;65843;50.692;12.844;2023-04-19T00:28:36;21.70;58.00
76878;DHT22;65843;50.692;12.844;2023-04-19T00:29:37;21.70;58.00
76878;DHT22;65843;50.692;12.844;2023-04-19T00:30:38;21.70;58.10
76878;DHT22;65843;50.692;12.844;2023-04-19T00:31:39;21.70;58.00
76878;DHT22;65843;50.692;12.844;2023-04-19T00:32:40;21.70;58.00
76878;DHT22;65843;50.692;12.844;2023-04-19T00:33:41;21.70;58.10
76878;DHT22;65843;50.692;12.844;2023-04-19T00:34:42;21.70;58.00
76878;DHT22;65843;50.692;12.844;2023-04-19T00:35:43;21.70;58.10
76878;DHT22;65843;50.692;12.844;2023-04-19T00:36:43;21.70;58.10
76878;DHT22;65843;50.692;12.844;2023-04-19T00:37:44;21.70;58.00
76878;DHT22;65843;50.692;12.844;2023-04-19T00:38:45;21.70;58.10
76878;DHT22;65843;50.692;12.844;2023-04-19T00:39:46;21.70;58.10
76878;DHT22;65843;50.692;12.844;2023-04-19T00:40:47;21.70;58.10
76878;DHT22;65843;50.692;12.844;2023-04-19T00:41:48;21.70;58.00
76878;DHT22;65843;50.692;12.844;2023-04-19T00:42:49;21.70;58.10
76878;DHT22;65843;50.692;12.844;2023-04-19T00:43:50;21.70;58.20
76878;DHT22;65843;50.692;12.844;2023-04-19T00:44:51;21.70;58.10
76878;DHT22;65843;50.692;12.844;2023-04-19T00:45:52;21.70;58.10
76878;DHT22;65843;50.692;12.844;2023-04-19T00:46:53;21.70;58.10
76878;DHT22;65843;50.692;12.844;2023-04-19T00:47:55;21.70;58.10
76878;DHT22;65843;50.692;12.844;2023-04-19T00:48:56;21.70;58.10
76878;DHT22;65843;50.692;12.844;2023-04-19T00:49:57;21.70;58.10
76878;DHT22;65843;50.692;12.844;2023-04-19T00:50:58;21.70;58.00
76878;DHT22;65843;50.692;12.844;2023-04-19T00:51:59;21.70;58.00
76878;DHT22;65843;50.692;12.844;2023-04-19T00:53:00;21.70;58.10
76878;DHT22;65843;50.692;12.844;2023-04-19T00:54:02;21.70;58.10
76878;DHT22;65843;50.692;12.844;2023-04-19T00:55:03;21.70;58.10
76878;DHT22;65843;50.692;12.844;2023-04-19T00:56:04;21.70;58.10
76878;DHT22;65843;50.692;12.844;2023-04-19T00:57:06;21.70;58.10
76878;DHT22;65843;50.692;12.844;2023-04-19T00:58:07;21.70;58.00
76878;DHT22;65843;50.692;12.844;2023-04-19T00:59:08;21.70;58.10
76878;DHT22;65843;50.692;12.844;2023-04-19T01:00:10;21.70;58.10
76878;DHT22;65843;50.692;12.844;2023-04-19T01:01:11;21.70;58.20
76878;DHT22;65843;50.692;12.844;2023-04-19T01:02:12;21.70;58.10
76878;DHT22;65843;50.692;12.844;2023-04-19T01:03:13;21.70;58.10
76878;DHT22;65843;50.692;12.844;2023-04-19T01:04:14;21.70;58.10
76878;DHT22;65843;50.692;12.844;2023-04-19T01:05:15;21.70;58.10
76878;DHT22;65843;50.692;12.844;2023-04-19T01:06:16;21.70;58.20
76878;DHT22;65843;50.692;12.844;2023-04-19T01:07:17;21.70;58.10
76878;DHT22;65843;50.692;12.844;2023-04-19T01:08:18;21.70;58.10
76878;DHT22;65843;50.692;12.844;2023-04-19T01:09:19;21.70;58.10
76878;DHT22;65843;50.692;12.844;2023-04-19T01:10:20;21.70;58.20
76878;DHT22;65843;50.692;12.844;2023-04-19T01:11:22;21.70;58.10
76878;DHT22;65843;50.692;12.844;2023-04-19T01:12:23;21.70;58.20
76878;DHT22;65843;50.692;12.844;2023-04-19T01:13:23;21.70;58.20
76878;DHT22;65843;50.692;12.844;2023-04-19T01:14:24;21.70;58.10
76878;DHT22;65843;50.692;12.844;2023-04-19T01:15:25;21.70;58.10
76878;DHT22;65843;50.692;12.844;2023-04-19T01:16:26;21.70;58.10
76878;DHT22;65843;50.692;12.844;2023-04-19T01:17:28;21.70;58.10
76878;DHT22;65843;50.692;12.844;2023-04-19T01:18:31;21.70;58.10
76878;DHT22;65843;50.692;12.844;2023-04-19T01:19:37;21.70;58.20
76878;DHT22;65843;50.692;12.844;2023-04-19T01:20:38;21.70;58.20
76878;DHT22;65843;50.692;12.844;2023-04-19T01:21:39;21.70;58.20
76878;DHT22;65843;50.692;12.844;2023-04-19T01:22:40;21.70;58.20
76878;DHT22;65843;50.692;12.844;2023-04-19T01:23:41;21.70;58.30
76878;DHT22;65843;50.692;12.844;2023-04-19T01:24:42;21.70;58.30
76878;DHT22;65843;50.692;12.844;2023-04-19T01:25:42;21.70;58.30
76878;DHT22;65843;50.692;12.844;2023-04-19T01:26:43;21.70;58.30
76878;DHT22;65843;50.692;12.844;2023-04-19T01:27:45;21.70;58.40
76878;DHT22;65843;50.692;12.844;2023-04-19T01:28:45;21.70;58.30
76878;DHT22;65843;50.692;12.844;2023-04-19T01:29:47;21.70;58.40
76878;DHT22;65843;50.692;12.844;2023-04-19T01:30:47;21.70;58.40
76878;DHT22;65843;50.692;12.844;2023-04-19T01:31:50;21.70;58.40
76878;DHT22;65843;50.692;12.844;2023-04-19T01:32:53;21.70;58.40
76878;DHT22;65843;50.692;12.844;2023-04-19T01:33:54;21.70;58.40
76878;DHT22;65843;50.692;12.844;2023-04-19T01:34:55;21.70;58.40
76878;DHT22;65843;50.692;12.844;2023-04-19T01:35:55;21.70;58.50
76878;DHT22;65843;50.692;12.844;2023-04-19T01:36:56;21.70;58.40
76878;DHT22;65843;50.692;12.844;2023-04-19T01:37:57;21.70;58.50
76878;DHT22;65843;50.692;12.844;2023-04-19T01:38:58;21.70;58.50
76878;DHT22;65843;50.692;12.844;2023-04-19T01:39:59;21.70;58.40
76878;DHT22;65843;50.692;12.844;2023-04-19T01:41:00;21.70;58.40
76878;DHT22;65843;50.692;12.844;2023-04-19T01:42:01;21.70;58.50
76878;DHT22;65843;50.692;12.844;2023-04-19T01:43:02;21.70;58.40
76878;DHT22;65843;50.692;12.844;2023-04-19T01:44:03;21.70;58.50
76878;DHT22;65843;50.692;12.844;2023-04-19T01:45:04;21.70;58.40
76878;DHT22;65843;50.692;12.844;2023-04-19T01:46:05;21.70;58.40
76878;DHT22;65843;50.692;12.844;2023-04-19T01:47:06;21.70;58.40
76878;DHT22;65843;50.692;12.844;2023-04-19T01:48:07;21.70;58.40
76878;DHT22;65843;50.692;12.844;2023-04-19T01:49:08;21.70;58.40
76878;DHT22;65843;50.692;12.844;2023-04-19T01:50:09;21.70;58.50
76878;DHT22;65843;50.692;12.844;2023-04-19T01:51:10;21.70;58.40
76878;DHT22;65843;50.692;12.844;2023-04-19T01:52:11;21.70;58.50
76878;DHT22;65843;50.692;12.844;2023-04-19T01:53:12;21.70;58.40
76878;DHT22;65843;50.692;12.844;2023-04-19T01:54:13;21.70;58.40
76878;DHT22;65843;50.692;12.844;2023-04-19T01:55:14;21.70;58.40
76878;DHT22;65843;50.692;12.844;2023-04-19T01:56:15;21.70;58.40
76878;DHT22;65843;50.692;12.844;2023-04-19T01:57:15;21.80;58.40
76878;DHT22;65843;50.692;12.844;2023-04-19T01:58:18;21.80;58.40
76878;DHT22;65843;50.692;12.844;2023-04-19T01:59:19;21.80;58.30
76878;DHT22;65843;50.692;12.844;2023-04-19T02:00:20;21.70;58.40
76878;DHT22;65843;50.692;12.844;2023-04-19T02:01:21;21.70;58.30
76878;DHT22;65843;50.692;12.844;2023-04-19T02:02:22;21.80;58.30
76878;DHT22;65843;50.692;12.844;2023-04-19T02:03:23;21.80;58.30
76878;DHT22;65843;50.692;12.844;2023-04-19T02:04:23;21.80;58.30
76878;DHT22;65843;50.692;12.844;2023-04-19T02:05:25;21.80;58.30
76878;DHT22;65843;50.692;12.844;2023-04-19T02:06:25;21.80;58.30
76878;DHT22;65843;50.692;12.844;2023-04-19T02:07:26;21.80;58.30
76878;DHT22;65843;50.692;12.844;2023-04-19T02:08:27;21.80;58.30
76878;DHT22;65843;50.692;12.844;2023-04-19T02:09:28;21.80;58.40
76878;DHT22;65843;50.692;12.844;2023-04-19T02:10:29;21.70;58.30
76878;DHT22;65843;50.692;12.844;2023-04-19T02:11:30;21.80;58.40
76878;DHT22;65843;50.692;12.844;2023-04-19T02:12:32;21.80;58.30
76878;DHT22;65843;50.692;12.844;2023-04-19T02:13:34;21.70;58.40
76878;DHT22;65843;50.692;12.844;2023-04-19T02:14:35;21.80;58.40
76878;DHT22;65843;50.692;12.844;2023-04-19T02:15:36;21.80;58.40
76878;DHT22;65843;50.692;12.844;2023-04-19T02:16:37;21.70;58.40
76878;DHT22;65843;50.692;12.844;2023-04-19T02:17:37;21.80;58.40
76878;DHT22;65843;50.692;12.844;2023-04-19T02:18:39;21.80;58.40
76878;DHT22;65843;50.692;12.844;2023-04-19T02:19:41;21.80;58.40
76878;DHT22;65843;50.692;12.844;2023-04-19T02:20:42;21.70;58.30
76878;DHT22;65843;50.692;12.844;2023-04-19T02:21:43;21.80;58.40
76878;DHT22;65843;50.692;12.844;2023-04-19T02:22:44;21.80;58.30
76878;DHT22;65843;50.692;12.844;2023-04-19T02:23:45;21.70;58.40
76878;DHT22;65843;50.692;12.844;2023-04-19T02:24:46;21.80;58.40
76878;DHT22;65843;50.692;12.844;2023-04-19T02:25:47;21.80;58.40
76878;DHT22;65843;50.692;12.844;2023-04-19T02:26:48;21.70;58.40
76878;DHT22;65843;50.692;12.844;2023-04-19T02:27:49;21.80;58.40
76878;DHT22;65843;50.692;12.844;2023-04-19T02:28:50;21.80;58.40
76878;DHT22;65843;50.692;12.844;2023-04-19T02:29:52;21.80;58.40
76878;DHT22;65843;50.692;12.844;2023-04-19T02:30:53;21.70;58.30
76878;DHT22;65843;50.692;12.844;2023-04-19T02:31:54;21.70;58.40
76878;DHT22;65843;50.692;12.844;2023-04-19T02:32:55;21.80;58.40
76878;DHT22;65843;50.692;12.844;2023-04-19T02:33:55;21.80;58.40
76878;DHT22;65843;50.692;12.844;2023-04-19T02:34:56;21.80;58.40
76878;DHT22;65843;50.692;12.844;2023-04-19T02:35:57;21.80;58.40
76878;DHT22;65843;50.692;12.844;2023-04-19T02:36:58;21.80;58.40
76878;DHT22;65843;50.692;12.844;2023-04-19T02:38:00;21.80;58.40
76878;DHT22;65843;50.692;12.844;2023-04-19T02:39:01;21.70;58.40
76878;DHT22;65843;50.692;12.844;2023-04-19T02:40:02;21.80;58.40
76878;DHT22;65843;50.692;12.844;2023-04-19T02:41:05;21.80;58.40
76878;DHT22;65843;50.692;12.844;2023-04-19T02:42:05;21.80;58.40
76878;DHT22;65843;50.692;12.844;2023-04-19T02:43:06;21.70;58.50
76878;DHT22;65843;50.692;12.844;2023-04-19T02:44:07;21.70;58.40
76878;DHT22;65843;50.692;12.844;2023-04-19T02:45:08;21.70;58.40
76878;DHT22;65843;50.692;12.844;2023-04-19T02:46:09;21.70;58.40
76878;DHT22;65843;50.692;12.844;2023-04-19T02:47:10;21.70;58.40
76878;DHT22;65843;50.692;12.844;2023-04-19T02:48:11;21.70;58.40
76878;DHT22;65843;50.692;12.844;2023-04-19T02:49:12;21.70;58.50
76878;DHT22;65843;50.692;12.844;2023-04-19T02:50:14;21.70;58.40
76878;DHT22;65843;50.692;12.844;2023-04-19T02:51:16;21.80;58.40
76878;DHT22;65843;50.692;12.844;2023-04-19T02:52:17;21.80;58.40
76878;DHT22;65843;50.692;12.844;2023-04-19T02:53:18;21.80;58.40
76878;DHT22;65843;50.692;12.844;2023-04-19T02:54:19;21.70;58.40
76878;DHT22;65843;50.692;12.844;2023-04-19T02:55:20;21.70;58.40
76878;DHT22;65843;50.692;12.844;2023-04-19T02:56:21;21.70;58.40
76878;DHT22;65843;50.692;12.844;2023-04-19T02:57:21;21.80;58.40
76878;DHT22;65843;50.692;12.844;2023-04-19T02:58:22;21.70;58.50
76878;DHT22;65843;50.692;12.844;2023-04-19T02:59:23;21.70;58.40
76878;DHT22;65843;50.692;12.844;2023-04-19T03:00:24;21.70;58.40
76878;DHT22;65843;50.692;12.844;2023-04-19T03:01:25;21.70;58.40
76878;DHT22;65843;50.692;12.844;2023-04-19T03:02:26;21.70;58.50
76878;DHT22;65843;50.692;12.844;2023-04-19T03:03:27;21.70;58.40
76878;DHT22;65843;50.692;12.844;2023-04-19T03:04:28;21.70;58.40
76878;DHT22;65843;50.692;12.844;2023-04-19T03:05:29;21.70;58.40
76878;DHT22;65843;50.692;12.844;2023-04-19T03:06:30;21.70;58.40
76878;DHT22;65843;50.692;12.844;2023-04-19T03:07:31;21.70;58.40
76878;DHT22;65843;50.692;12.844;2023-04-19T03:08:32;21.70;58.50
76878;DHT22;65843;50.692;12.844;2023-04-19T03:09:33;21.70;58.50
76878;DHT22;65843;50.692;12.844;2023-04-19T03:10:34;21.70;58.50
76878;DHT22;65843;50.692;12.844;2023-04-19T03:11:35;21.70;58.50
76878;DHT22;65843;50.692;12.844;2023-04-19T03:12:38;21.70;58.50
76878;DHT22;65843;50.692;12.844;2023-04-19T03:13:39;21.70;58.50
76878;DHT22;65843;50.692;12.844;2023-04-19T03:14:40;21.70;58.50
76878;DHT22;65843;50.692;12.844;2023-04-19T03:15:41;21.70;58.60
76878;DHT22;65843;50.692;12.844;2023-04-19T03:16:42;21.70;58.60
76878;DHT22;65843;50.692;12.844;2023-04-19T03:17:43;21.70;58.50
76878;DHT22;65843;50.692;12.844;2023-04-19T03:18:43;21.70;58.60
76878;DHT22;65843;50.692;12.844;2023-04-19T03:19:44;21.70;58.60
76878;DHT22;65843;50.692;12.844;2023-04-19T03:20:45;21.70;58.50
76878;DHT22;65843;50.692;12.844;2023-04-19T03:21:46;21.70;58.50
76878;DHT22;65843;50.692;12.844;2023-04-19T03:22:47;21.70;58.60
76878;DHT22;65843;50.692;12.844;2023-04-19T03:23:49;21.70;58.60
76878;DHT22;65843;50.692;12.844;2023-04-19T03:24:50;21.70;58.60
76878;DHT22;65843;50.692;12.844;2023-04-19T03:25:51;21.70;58.50
76878;DHT22;65843;50.692;12.844;2023-04-19T03:26:51;21.70;58.60
76878;DHT22;65843;50.692;12.844;2023-04-19T03:27:52;21.70;58.60
76878;DHT22;65843;50.692;12.844;2023-04-19T03:28:53;21.70;58.60
76878;DHT22;65843;50.692;12.844;2023-04-19T03:29:55;21.70;58.70
76878;DHT22;65843;50.692;12.844;2023-04-19T03:30:56;21.70;58.60
76878;DHT22;65843;50.692;12.844;2023-04-19T03:31:57;21.70;58.60
76878;DHT22;65843;50.692;12.844;2023-04-19T03:32:58;21.70;58.60
76878;DHT22;65843;50.692;12.844;2023-04-19T03:33:59;21.70;58.70
76878;DHT22;65843;50.692;12.844;2023-04-19T03:35:00;21.70;58.60
76878;DHT22;65843;50.692;12.844;2023-04-19T03:36:01;21.70;58.70
76878;DHT22;65843;50.692;12.844;2023-04-19T03:37:03;21.70;58.60
76878;DHT22;65843;50.692;12.844;2023-04-19T03:38:04;21.70;58.70
76878;DHT22;65843;50.692;12.844;2023-04-19T03:39:05;21.70;58.70
76878;DHT22;65843;50.692;12.844;2023-04-19T03:40:06;21.70;58.70
76878;DHT22;65843;50.692;12.844;2023-04-19T03:41:17;21.70;58.70
76878;DHT22;65843;50.692;12.844;2023-04-19T03:42:18;21.70;58.70
76878;DHT22;65843;50.692;12.844;2023-04-19T03:43:19;21.70;58.70
76878;DHT22;65843;50.692;12.844;2023-04-19T03:44:20;21.70;58.70
76878;DHT22;65843;50.692;12.844;2023-04-19T03:45:21;21.80;58.70
76878;DHT22;65843;50.692;12.844;2023-04-19T03:46:22;21.70;58.70
76878;DHT22;65843;50.692;12.844;2023-04-19T03:47:23;21.70;58.70
76878;DHT22;65843;50.692;12.844;2023-04-19T03:48:24;21.70;58.70
76878;DHT22;65843;50.692;12.844;2023-04-19T03:49:25;21.70;58.70
76878;DHT22;65843;50.692;12.844;2023-04-19T03:50:26;21.70;58.70
76878;DHT22;65843;50.692;12.844;2023-04-19T03:51:27;21.70;58.70
76878;DHT22;65843;50.692;12.844;2023-04-19T03:52:28;21.70;58.70
76878;DHT22;65843;50.692;12.844;2023-04-19T03:53:29;21.70;58.70
76878;DHT22;65843;50.692;12.844;2023-04-19T03:54:30;21.70;58.70
76878;DHT22;65843;50.692;12.844;2023-04-19T03:55:31;21.70;58.70
76878;DHT22;65843;50.692;12.844;2023-04-19T03:56:32;21.70;58.70
76878;DHT22;65843;50.692;12.844;2023-04-19T03:57:32;21.70;58.80
76878;DHT22;65843;50.692;12.844;2023-04-19T03:58:33;21.70;58.80
76878;DHT22;65843;50.692;12.844;2023-04-19T03:59:34;21.70;58.80
76878;DHT22;65843;50.692;12.844;2023-04-19T04:00:35;21.70;58.80
76878;DHT22;65843;50.692;12.844;2023-04-19T04:01:36;21.70;58.80
76878;DHT22;65843;50.692;12.844;2023-04-19T04:02:41;21.70;58.90
76878;DHT22;65843;50.692;12.844;2023-04-19T04:03:42;21.70;58.90
76878;DHT22;65843;50.692;12.844;2023-04-19T04:04:43;21.70;58.90
76878;DHT22;65843;50.692;12.844;2023-04-19T04:05:44;21.70;58.90
76878;DHT22;65843;50.692;12.844;2023-04-19T04:06:45;21.70;58.90
76878;DHT22;65843;50.692;12.844;2023-04-19T04:07:46;21.70;58.90
76878;DHT22;65843;50.692;12.844;2023-04-19T04:08:47;21.70;58.90
76878;DHT22;65843;50.692;12.844;2023-04-19T04:09:48;21.70;58.90
76878;DHT22;65843;50.692;12.844;2023-04-19T04:10:49;21.70;58.90
76878;DHT22;65843;50.692;12.844;2023-04-19T04:11:50;21.70;58.90
76878;DHT22;65843;50.692;12.844;2023-04-19T04:12:51;21.70;58.90
76878;DHT22;65843;50.692;12.844;2023-04-19T04:13:52;21.80;58.90
76878;DHT22;65843;50.692;12.844;2023-04-19T04:14:53;21.80;58.90
76878;DHT22;65843;50.692;12.844;2023-04-19T04:15:54;21.80;58.90
76878;DHT22;65843;50.692;12.844;2023-04-19T04:16:55;21.70;59.00
76878;DHT22;65843;50.692;12.844;2023-04-19T04:17:55;21.80;58.90
76878;DHT22;65843;50.692;12.844;2023-04-19T04:18:56;21.80;59.00
76878;DHT22;65843;50.692;12.844;2023-04-19T04:19:57;21.80;58.90
76878;DHT22;65843;50.692;12.844;2023-04-19T04:20:58;21.80;58.90
76878;DHT22;65843;50.692;12.844;2023-04-19T04:22:00;21.80;58.90
76878;DHT22;65843;50.692;12.844;2023-04-19T04:23:01;21.80;58.90
76878;DHT22;65843;50.692;12.844;2023-04-19T04:24:02;21.80;58.90
76878;DHT22;65843;50.692;12.844;2023-04-19T04:25:03;21.80;58.90
76878;DHT22;65843;50.692;12.844;2023-04-19T04:26:04;21.80;58.90
76878;DHT22;65843;50.692;12.844;2023-04-19T04:27:08;21.80;59.00
76878;DHT22;65843;50.692;12.844;2023-04-19T04:28:12;21.80;58.90
76878;DHT22;65843;50.692;12.844;2023-04-19T04:29:13;21.80;58.90
76878;DHT22;65843;50.692;12.844;2023-04-19T04:30:14;21.80;58.90
76878;DHT22;65843;50.692;12.844;2023-04-19T04:31:15;21.80;58.90
76878;DHT22;65843;50.692;12.844;2023-04-19T04:32:17;21.80;58.90
76878;DHT22;65843;50.692;12.844;2023-04-19T04:33:25;21.80;58.90
76878;DHT22;65843;50.692;12.844;2023-04-19T04:34:26;21.80;58.90
76878;DHT22;65843;50.692;12.844;2023-04-19T04:35:27;21.80;58.80
76878;DHT22;65843;50.692;12.844;2023-04-19T04:36:29;21.80;58.90
76878;DHT22;65843;50.692;12.844;2023-04-19T04:37:31;21.80;58.90
76878;DHT22;65843;50.692;12.844;2023-04-19T04:38:33;21.80;58.90
76878;DHT22;65843;50.692;12.844;2023-04-19T04:39:35;21.80;58.90
76878;DHT22;65843;50.692;12.844;2023-04-19T04:40:38;21.80;59.00
76878;DHT22;65843;50.692;12.844;2023-04-19T04:41:39;21.80;59.00
76878;DHT22;65843;50.692;12.844;2023-04-19T04:42:41;21.70;59.00
76878;DHT22;65843;50.692;12.844;2023-04-19T04:43:45;21.70;59.00
76878;DHT22;65843;50.692;12.844;2023-04-19T04:44:49;21.70;59.10
76878;DHT22;65843;50.692;12.844;2023-04-19T04:45:50;21.70;59.10
76878;DHT22;65843;50.692;12.844;2023-04-19T04:46:51;21.70;59.10
76878;DHT22;65843;50.692;12.844;2023-04-19T04:47:52;21.70;59.20
76878;DHT22;65843;50.692;12.844;2023-04-19T04:48:53;21.70;59.10
76878;DHT22;65843;50.692;12.844;2023-04-19T04:49:54;21.70;59.10
76878;DHT22;65843;50.692;12.844;2023-04-19T04:50:55;21.70;59.10
76878;DHT22;65843;50.692;12.844;2023-04-19T04:51:56;21.80;59.10
76878;DHT22;65843;50.692;12.844;2023-04-19T04:52:57;21.80;59.10
76878;DHT22;65843;50.692;12.844;2023-04-19T04:53:57;21.70;59.00
76878;DHT22;65843;50.692;12.844;2023-04-19T04:54:58;21.80;58.90
76878;DHT22;65843;50.692;12.844;2023-04-19T04:55:59;21.70;58.90
76878;DHT22;65843;50.692;12.844;2023-04-19T04:57:00;21.80;58.90
76878;DHT22;65843;50.692;12.844;2023-04-19T04:58:02;21.70;58.70
76878;DHT22;65843;50.692;12.844;2023-04-19T04:59:05;21.70;58.60
76878;DHT22;65843;50.692;12.844;2023-04-19T05:00:07;21.80;58.50
76878;DHT22;65843;50.692;12.844;2023-04-19T05:01:09;21.70;58.30
76878;DHT22;65843;50.692;12.844;2023-04-19T05:02:09;21.70;58.10
76878;DHT22;65843;50.692;12.844;2023-04-19T05:03:11;21.70;58.00
76878;DHT22;65843;50.692;12.844;2023-04-19T05:04:12;21.70;58.00
76878;DHT22;65843;50.692;12.844;2023-04-19T05:05:13;21.70;57.90
76878;DHT22;65843;50.692;12.844;2023-04-19T05:06:14;21.60;57.90
76878;DHT22;65843;50.692;12.844;2023-04-19T05:07:15;21.60;57.90
76878;DHT22;65843;50.692;12.844;2023-04-19T05:08:16;21.50;57.90
76878;DHT22;65843;50.692;12.844;2023-04-19T05:09:17;21.60;57.80
76878;DHT22;65843;50.692;12.844;2023-04-19T05:10:18;21.60;57.80
76878;DHT22;65843;50.692;12.844;2023-04-19T05:11:19;21.50;57.90
76878;DHT22;65843;50.692;12.844;2023-04-19T05:12:20;21.50;57.90
76878;DHT22;65843;50.692;12.844;2023-04-19T05:13:20;21.50;57.80
76878;DHT22;65843;50.692;12.844;2023-04-19T05:14:21;21.50;57.70
76878;DHT22;65843;50.692;12.844;2023-04-19T05:15:22;21.50;57.70
76878;DHT22;65843;50.692;12.844;2023-04-19T05:16:24;21.50;57.60
76878;DHT22;65843;50.692;12.844;2023-04-19T05:17:25;21.50;57.70
76878;DHT22;65843;50.692;12.844;2023-04-19T05:18:26;21.50;57.60
76878;DHT22;65843;50.692;12.844;2023-04-19T05:19:27;21.50;57.60
76878;DHT22;65843;50.692;12.844;2023-04-19T05:20:28;21.50;57.50
76878;DHT22;65843;50.692;12.844;2023-04-19T05:21:29;21.50;57.50
76878;DHT22;65843;50.692;12.844;2023-04-19T05:22:30;21.50;57.50
76878;DHT22;65843;50.692;12.844;2023-04-19T05:23:31;21.50;57.50
76878;DHT22;65843;50.692;12.844;2023-04-19T05:24:32;21.50;57.40
76878;DHT22;65843;50.692;12.844;2023-04-19T05:25:33;21.50;57.30
76878;DHT22;65843;50.692;12.844;2023-04-19T05:26:34;21.50;57.30
76878;DHT22;65843;50.692;12.844;2023-04-19T05:27:35;21.50;57.30
76878;DHT22;65843;50.692;12.844;2023-04-19T05:28:36;21.50;57.30
76878;DHT22;65843;50.692;12.844;2023-04-19T05:29:37;21.50;57.20
76878;DHT22;65843;50.692;12.844;2023-04-19T05:30:37;21.50;57.20
76878;DHT22;65843;50.692;12.844;2023-04-19T05:31:38;21.50;57.20
76878;DHT22;65843;50.692;12.844;2023-04-19T05:32:39;21.50;57.20
76878;DHT22;65843;50.692;12.844;2023-04-19T05:33:40;21.50;57.10
76878;DHT22;65843;50.692;12.844;2023-04-19T05:34:41;21.50;57.10
76878;DHT22;65843;50.692;12.844;2023-04-19T05:35:42;21.50;57.10
76878;DHT22;65843;50.692;12.844;2023-04-19T05:36:43;21.50;57.00
76878;DHT22;65843;50.692;12.844;2023-04-19T05:37:44;21.50;57.00
76878;DHT22;65843;50.692;12.844;2023-04-19T05:38:45;21.50;56.90
76878;DHT22;65843;50.692;12.844;2023-04-19T05:39:46;21.50;56.90
76878;DHT22;65843;50.692;12.844;2023-04-19T05:40:47;21.50;56.90
76878;DHT22;65843;50.692;12.844;2023-04-19T05:41:48;21.50;56.70
76878;DHT22;65843;50.692;12.844;2023-04-19T05:42:49;21.50;56.70
76878;DHT22;65843;50.692;12.844;2023-04-19T05:43:50;21.50;56.70
76878;DHT22;65843;50.692;12.844;2023-04-19T05:44:51;21.40;56.70
76878;DHT22;65843;50.692;12.844;2023-04-19T05:45:52;21.50;56.70
76878;DHT22;65843;50.692;12.844;2023-04-19T05:46:52;21.40;56.70
76878;DHT22;65843;50.692;12.844;2023-04-19T05:47:53;21.40;56.60
76878;DHT22;65843;50.692;12.844;2023-04-19T05:48:54;21.40;56.60
76878;DHT22;65843;50.692;12.844;2023-04-19T05:49:55;21.40;56.60
76878;DHT22;65843;50.692;12.844;2023-04-19T05:50:56;21.40;56.60
76878;DHT22;65843;50.692;12.844;2023-04-19T05:51:58;21.40;56.50
76878;DHT22;65843;50.692;12.844;2023-04-19T05:52:59;21.40;56.50
76878;DHT22;65843;50.692;12.844;2023-04-19T05:54:00;21.40;56.40
76878;DHT22;65843;50.692;12.844;2023-04-19T05:55:01;21.40;56.40
76878;DHT22;65843;50.692;12.844;2023-04-19T05:56:02;21.40;56.30
76878;DHT22;65843;50.692;12.844;2023-04-19T05:57:03;21.40;56.20
76878;DHT22;65843;50.692;12.844;2023-04-19T05:58:04;21.40;56.30
76878;DHT22;65843;50.692;12.844;2023-04-19T05:59:05;21.40;56.10
76878;DHT22;65843;50.692;12.844;2023-04-19T06:00:06;21.40;56.10
76878;DHT22;65843;50.692;12.844;2023-04-19T06:01:09;21.40;56.20
76878;DHT22;65843;50.692;12.844;2023-04-19T06:02:10;21.40;56.20
76878;DHT22;65843;50.692;12.844;2023-04-19T06:03:11;21.40;56.20
76878;DHT22;65843;50.692;12.844;2023-04-19T06:04:12;21.40;56.10
76878;DHT22;65843;50.692;12.844;2023-04-19T06:05:13;21.40;56.20
76878;DHT22;65843;50.692;12.844;2023-04-19T06:06:14;21.40;56.10
76878;DHT22;65843;50.692;12.844;2023-04-19T06:07:16;21.40;56.10
76878;DHT22;65843;50.692;12.844;2023-04-19T06:08:18;21.40;56.00
76878;DHT22;65843;50.692;12.844;2023-04-19T06:09:22;21.40;56.00
76878;DHT22;65843;50.692;12.844;2023-04-19T06:10:24;21.40;56.00
76878;DHT22;65843;50.692;12.844;2023-04-19T06:11:25;21.40;55.90
76878;DHT22;65843;50.692;12.844;2023-04-19T06:12:26;21.40;55.80
76878;DHT22;65843;50.692;12.844;2023-04-19T06:13:28;21.40;55.90
76878;DHT22;65843;50.692;12.844;2023-04-19T06:14:29;21.40;55.90
76878;DHT22;65843;50.692;12.844;2023-04-19T06:15:30;21.40;55.80
76878;DHT22;65843;50.692;12.844;2023-04-19T06:16:32;21.40;55.80
76878;DHT22;65843;50.692;12.844;2023-04-19T06:17:33;21.40;55.80
76878;DHT22;65843;50.692;12.844;2023-04-19T06:18:37;21.40;55.80
76878;DHT22;65843;50.692;12.844;2023-04-19T06:19:39;21.40;55.70